Aviation Digital Data Service (ADDS)

Output produced by METARs form (2013 UTC 18 January 2017)
found at http://aviationweather.gov/adds/metars/
 
KHUL 181738Z 1818/1918 12006KT P6SM BKN025 
     FM182100 12005KT P6SM BKN025 
     FM182200 12005KT P6SM BKN040 
     FM190200 13005KT P6SM OVC025 
     FM190500 15005KT P6SM OVC005 
     FM190700 16005KT 2SM -SN OVC005 
     FM191500 20007KT P6SM OVC005